Time;durP1;ratioP1;P1;durP2;ratioP2;P2;SDS_P1;SDS_P2;PMS_P1;PMS_P2;Temp;Humidity;BMP_temperature;BMP_pressure;BME280_temperature;BME280_humidity;BME280_pressure;Samples;Min_cycle;Max_cycle;Signal;HPM_P1;HPM_P2
2023/04/15 00:01:32;;;;;;;5.15;3.33;;;;;;;8.26;79.37;100399.95;1778099;79;21047;-58
2023/04/15 00:04:00;;;;;;;5.15;2.83;;;;;;;8.28;79.46;100403.87;1777899;81;21462;-55
2023/04/15 00:06:31;;;;;;;4.45;3.20;;;;;;;8.27;79.15;100406.27;1777821;81;21486;-57
2023/04/15 00:08:59;;;;;;;5.25;3.33;;;;;;;8.24;78.96;100400.66;1777845;81;21034;-57
2023/04/15 00:11:29;;;;;;;5.35;3.33;;;;;;;8.24;79.09;100394.34;1778109;79;21058;-58
2023/04/15 00:13:59;;;;;;;4.72;3.42;;;;;;;8.21;78.74;100387.38;1777930;80;21411;-56
2023/04/15 00:16:28;;;;;;;4.25;3.00;;;;;;;8.19;78.75;100384.49;1777763;80;21469;-57
2023/04/15 00:18:57;;;;;;;6.03;3.20;;;;;;;8.16;78.96;100383.50;1778041;79;21481;-56
2023/04/15 00:21:27;;;;;;;6.25;3.20;;;;;;;8.15;78.86;100388.63;1777872;79;21006;-56
2023/04/15 00:23:56;;;;;;;6.95;3.25;;;;;;;8.13;78.95;100383.86;1777946;81;21161;-57
2023/04/15 00:26:25;;;;;;;5.30;3.58;;;;;;;8.12;79.14;100379.44;1778158;80;21085;-60
2023/04/15 00:28:54;;;;;;;6.67;3.85;;;;;;;8.08;79.08;100390.38;1777933;80;21125;-57
2023/04/15 00:31:23;;;;;;;7.67;3.75;;;;;;;8.03;79.23;100390.08;1778026;79;21450;-58
2023/04/15 00:33:52;;;;;;;5.33;3.83;;;;;;;8.00;79.71;100379.01;1777918;80;21042;-58
2023/04/15 00:36:25;;;;;;;5.80;3.83;;;;;;;7.99;79.74;100386.02;1777958;79;21026;-57
2023/04/15 00:38:54;;;;;;;7.62;4.03;;;;;;;7.97;79.94;100389.44;1777832;81;21014;-56
2023/04/15 00:41:24;;;;;;;7.33;3.87;;;;;;;7.94;79.92;100399.69;1777789;79;21467;-58
2023/04/15 00:43:53;;;;;;;8.00;3.75;;;;;;;7.91;79.92;100394.59;1778050;81;20975;-57
2023/04/15 00:46:21;;;;;;;4.85;3.47;;;;;;;7.89;80.06;100394.44;1777844;81;21484;-55
2023/04/15 00:48:52;;;;;;;4.47;3.12;;;;;;;7.88;80.00;100386.77;1777959;81;21030;-57
2023/04/15 00:51:21;;;;;;;5.28;3.30;;;;;;;7.85;79.58;100381.67;1777794;80;21026;-56
2023/04/15 00:53:50;;;;;;;5.30;2.90;;;;;;;7.83;79.82;100383.73;1778044;81;20998;-56
2023/04/15 00:56:23;;;;;;;6.47;3.27;;;;;;;7.84;79.70;100379.13;1777895;79;21502;-56
2023/04/15 00:58:53;;;;;;;4.85;3.15;;;;;;;7.83;79.74;100386.97;1777837;79;21486;-56
2023/04/15 01:01:22;;;;;;;5.95;2.80;;;;;;;7.83;79.75;100381.00;1777818;81;21406;-58
2023/04/15 01:03:52;;;;;;;6.37;3.50;;;;;;;7.84;79.76;100390.89;1777981;79;21200;-57
2023/04/15 01:06:21;;;;;;;4.22;3.00;;;;;;;7.84;79.74;100401.80;1777815;79;21014;-57
2023/04/15 01:08:50;;;;;;;4.80;3.00;;;;;;;7.80;79.10;100389.55;1778141;80;20978;-55
2023/04/15 01:11:20;;;;;;;4.72;3.05;;;;;;;7.77;78.81;100393.97;1777850;81;21035;-57
2023/04/15 01:13:51;;;;;;;3.58;3.02;;;;;;;7.77;79.04;100384.42;1777898;81;21038;-56
2023/04/15 01:16:20;;;;;;;5.33;3.50;;;;;;;7.78;78.99;100388.00;1777911;81;21034;-57
2023/04/15 01:18:51;;;;;;;5.05;3.25;;;;;;;7.76;78.91;100386.81;1778024;79;21042;-58
2023/04/15 01:21:20;;;;;;;6.30;3.95;;;;;;;7.74;78.77;100394.33;1777841;79;21528;-57
2023/04/15 01:23:49;;;;;;;6.08;3.33;;;;;;;7.70;78.79;100391.62;1777932;79;21555;-58
2023/04/15 01:26:22;;;;;;;5.87;3.30;;;;;;;7.68;78.82;100390.11;1777891;79;21067;-56
2023/04/15 01:28:51;;;;;;;4.78;3.58;;;;;;;7.65;78.93;100387.22;1778161;79;21414;-57
2023/04/15 01:31:21;;;;;;;5.87;3.35;;;;;;;7.65;79.06;100392.67;1778216;79;21053;-57
2023/04/15 01:33:50;;;;;;;5.08;3.40;;;;;;;7.63;79.27;100387.91;1779567;79;21026;-56
2023/04/15 01:36:18;;;;;;;5.62;3.40;;;;;;;7.62;79.43;100393.88;1786955;80;21447;-58
2023/04/15 01:38:49;;;;;;;5.12;3.50;;;;;;;7.63;79.63;100393.37;1786749;79;21996;-55
2023/04/15 01:41:29;;;;;;;5.20;3.50;;;;;;;7.63;79.56;100402.91;1786967;80;21061;-56
2023/04/15 01:43:57;;;;;;;5.58;3.72;;;;;;;7.64;79.69;100408.70;1786806;80;21049;-55
2023/04/15 01:46:26;;;;;;;6.17;3.50;;;;;;;7.66;79.83;100417.55;1787852;80;21026;-57
2023/04/15 01:48:55;;;;;;;6.37;3.77;;;;;;;7.65;79.35;100421.31;1789004;79;21446;-57
2023/04/15 01:51:27;;;;;;;6.65;4.30;;;;;;;7.66;79.38;100425.73;1789927;79;21034;-57
2023/04/15 01:53:55;;;;;;;7.40;4.87;;;;;;;7.65;79.34;100417.22;1789101;80;21485;-56
2023/04/15 01:56:25;;;;;;;7.00;4.87;;;;;;;7.65;79.10;100419.95;1787240;80;21053;-58
2023/04/15 01:58:54;;;;;;;8.68;4.90;;;;;;;7.63;79.00;100422.84;1786819;79;21034;-57
2023/04/15 02:01:24;;;;;;;9.73;5.33;;;;;;;7.65;79.01;100422.67;1786936;79;21468;-58
2023/04/15 02:03:55;;;;;;;6.95;5.15;;;;;;;7.64;78.84;100422.34;1786768;80;21014;-57
2023/04/15 02:06:24;;;;;;;8.08;5.55;;;;;;;7.62;78.78;100425.75;1786889;80;21030;-57
2023/04/15 02:08:54;;;;;;;8.05;5.20;;;;;;;7.59;78.86;100430.20;1786737;80;21057;-57
2023/04/15 02:11:24;;;;;;;7.92;5.25;;;;;;;7.54;78.71;100430.73;1786534;79;21030;-57
2023/04/15 02:13:53;;;;;;;9.48;5.50;;;;;;;7.49;78.82;100427.69;1786788;80;21033;-62
2023/04/15 02:16:22;;;;;;;8.73;5.58;;;;;;;7.46;79.07;100434.02;1786846;79;21453;-57
2023/04/15 02:18:52;;;;;;;7.55;5.08;;;;;;;7.42;79.24;100435.39;1786870;80;21085;-57
2023/04/15 02:21:22;;;;;;;6.62;4.90;;;;;;;7.40;79.16;100436.08;1787039;79;21042;-57
2023/04/15 02:23:54;;;;;;;8.20;4.65;;;;;;;7.38;79.13;100443.07;1786726;79;21500;-59
2023/04/15 02:26:24;;;;;;;7.92;4.47;;;;;;;7.39;79.23;100453.45;1786753;79;21422;-57
2023/04/15 02:28:55;;;;;;;7.80;4.28;;;;;;;7.36;79.21;100452.45;1786778;80;21054;-57
2023/04/15 02:31:24;;;;;;;7.20;4.42;;;;;;;7.34;79.32;100458.08;1786689;80;21529;-56
2023/04/15 02:33:53;;;;;;;7.55;4.30;;;;;;;7.36;79.49;100458.75;1786363;80;21426;-57
2023/04/15 02:36:22;;;;;;;9.50;5.08;;;;;;;7.34;79.10;100451.27;1777895;79;21006;-57
2023/04/15 02:38:51;;;;;;;6.70;4.40;;;;;;;7.31;79.22;100457.91;1778250;79;21030;-58
2023/04/15 02:41:26;;;;;;;7.92;4.45;;;;;;;7.30;78.91;100457.58;1777974;79;21054;-56
2023/04/15 02:43:54;;;;;;;6.92;4.50;;;;;;;7.30;79.04;100460.81;1778042;79;21061;-57
2023/04/15 02:46:23;;;;;;;10.23;4.78;;;;;;;7.27;79.09;100452.98;1777655;79;21014;-57
2023/04/15 02:48:52;;;;;;;5.60;4.22;;;;;;;7.27;79.04;100461.16;1777998;81;21073;-56
2023/04/15 02:51:21;;;;;;;7.22;5.10;;;;;;;7.25;79.13;100465.94;1747682;81;21081;-57
2023/04/15 02:53:50;;;;;;;8.95;5.12;;;;;;;7.23;79.36;100470.20;1777926;79;21014;-56
2023/04/15 02:56:22;;;;;;;8.63;4.90;;;;;;;7.25;79.33;100469.52;1777953;79;21089;-58
2023/04/15 02:58:51;;;;;;;7.87;4.95;;;;;;;7.21;79.29;100466.80;1778018;79;21018;-56
2023/04/15 03:01:20;;;;;;;7.00;4.95;;;;;;;7.21;79.42;100471.41;1777912;81;21523;-58
2023/04/15 03:03:48;;;;;;;6.55;4.45;;;;;;;7.20;79.46;100478.73;1778037;79;21137;-57
2023/04/15 03:06:17;;;;;;;8.65;4.62;;;;;;;7.18;79.69;100475.33;1777820;79;21109;-56
2023/04/15 03:08:47;;;;;;;8.13;5.12;;;;;;;7.19;79.70;100476.17;1777874;79;21446;-59
2023/04/15 03:11:16;;;;;;;8.30;4.95;;;;;;;7.17;79.75;100474.98;1777985;79;21447;-57
2023/04/15 03:13:46;;;;;;;7.35;4.33;;;;;;;7.14;79.87;100477.17;1777715;81;21407;-56
2023/04/15 03:16:16;;;;;;;6.80;4.78;;;;;;;7.09;80.00;100478.20;1776697;81;21010;-57
2023/04/15 03:18:46;;;;;;;6.37;4.75;;;;;;;7.06;80.29;100473.95;1777735;81;21308;-57
2023/04/15 03:21:15;;;;;;;9.68;6.05;;;;;;;7.07;80.48;100476.17;1778125;81;21010;-57
2023/04/15 03:23:48;;;;;;;8.68;5.87;;;;;;;7.08;80.69;100475.15;1777971;80;21042;-57
2023/04/15 03:26:26;;;;;;;9.28;6.78;;;;;;;7.09;80.85;100472.25;1777960;81;21407;-57
2023/04/15 03:28:56;;;;;;;10.88;7.50;;;;;;;7.08;80.85;100473.78;1777675;81;21060;-58
2023/04/15 03:31:26;;;;;;;11.55;8.08;;;;;;;7.09;80.96;100473.61;1777763;79;21426;-57
2023/04/15 03:33:55;;;;;;;13.53;8.95;;;;;;;7.08;81.00;100466.46;1778152;81;21510;-58
2023/04/15 03:36:25;;;;;;;12.93;8.80;;;;;;;7.09;81.19;100463.22;1786297;80;21560;-58
2023/04/15 03:38:54;;;;;;;13.38;7.85;;;;;;;7.10;81.27;100465.77;1758956;80;21042;-57
2023/04/15 03:41:23;;;;;;;8.73;5.90;;;;;;;7.13;81.29;100470.03;1786829;80;21014;-57
2023/04/15 03:43:52;;;;;;;13.68;6.62;;;;;;;7.09;80.85;100464.08;1786738;79;21053;-57
2023/04/15 03:46:21;;;;;;;8.88;6.65;;;;;;;7.07;80.96;100468.00;1786634;79;21045;-56
2023/04/15 03:48:50;;;;;;;13.32;7.58;;;;;;;7.05;80.87;100471.41;1786886;79;21065;-56
2023/04/15 03:51:21;;;;;;;12.15;7.25;;;;;;;7.03;81.07;100479.75;1786641;79;21446;-57
2023/04/15 03:53:50;;;;;;;12.53;8.03;;;;;;;7.00;81.05;100478.22;1786724;79;20998;-57
2023/04/15 03:56:18;;;;;;;12.55;7.83;;;;;;;7.00;81.33;100477.37;1786843;79;21529;-56
2023/04/15 03:58:47;;;;;;;14.45;9.08;;;;;;;7.00;81.49;100476.02;1786666;79;21085;-57
2023/04/15 04:01:16;;;;;;;16.75;9.45;;;;;;;7.01;81.69;100468.17;1786643;79;21477;-57
2023/04/15 04:03:46;;;;;;;14.70;9.13;;;;;;;7.03;81.96;100477.03;1786825;79;21061;-57
2023/04/15 04:06:16;;;;;;;15.18;8.63;;;;;;;7.08;81.95;100473.78;1722237;82;21030;-59
2023/04/15 04:08:47;;;;;;;13.10;8.40;;;;;;;7.11;81.99;100465.27;1722090;82;21304;-56
2023/04/15 04:11:16;;;;;;;14.55;8.78;;;;;;;7.13;81.82;100466.79;1722411;83;21094;-57
2023/04/15 04:13:44;;;;;;;13.48;8.75;;;;;;;7.15;81.72;100469.34;1722277;83;21490;-56
2023/04/15 04:16:14;;;;;;;14.75;8.50;;;;;;;7.13;81.52;100471.39;1722362;83;21635;-57
2023/04/15 04:18:43;;;;;;;13.35;7.85;;;;;;;7.14;81.61;100473.94;1722294;83;21198;-57
2023/04/15 04:21:11;;;;;;;15.38;8.05;;;;;;;7.15;81.36;100489.78;1722106;83;21166;-60
2023/04/15 04:23:41;;;;;;;13.03;8.70;;;;;;;7.16;81.14;100477.88;1711002;80;21058;-57
2023/04/15 04:26:10;;;;;;;13.98;8.43;;;;;;;7.14;81.24;100478.54;1786850;79;21461;-56
2023/04/15 04:28:39;;;;;;;14.47;8.25;;;;;;;7.19;81.35;100487.08;1786725;79;21013;-57
2023/04/15 04:31:09;;;;;;;15.08;8.20;;;;;;;7.23;81.21;100487.91;1786854;79;21057;-57
2023/04/15 04:33:39;;;;;;;11.70;8.00;;;;;;;7.22;80.95;100486.22;1786604;80;21049;-57
2023/04/15 04:36:08;;;;;;;9.80;6.37;;;;;;;7.24;81.08;100490.98;1774618;80;21058;-56
2023/04/15 04:38:38;;;;;;;9.75;6.15;;;;;;;7.27;81.02;100493.88;1770277;81;21038;-57
2023/04/15 04:41:07;;;;;;;10.60;5.65;;;;;;;7.28;80.96;100482.79;1770279;80;21447;-57
2023/04/15 04:43:38;;;;;;;7.70;5.53;;;;;;;7.28;80.52;100490.12;1770235;80;21011;-57
2023/04/15 04:46:07;;;;;;;11.30;6.10;;;;;;;7.27;80.57;100495.23;1770152;81;21504;-57
2023/04/15 04:48:38;;;;;;;10.48;6.33;;;;;;;7.22;80.41;100484.85;1770570;81;20979;-57
2023/04/15 04:51:07;;;;;;;9.90;6.25;;;;;;;7.18;80.44;100494.91;1770173;79;21014;-55
2023/04/15 04:53:36;;;;;;;11.48;7.10;;;;;;;7.15;80.55;100484.33;1770359;79;21464;-56
2023/04/15 04:56:05;;;;;;;13.38;7.00;;;;;;;7.13;80.99;100494.03;1770149;79;21078;-56
2023/04/15 04:58:34;;;;;;;11.35;7.00;;;;;;;7.15;81.18;100492.02;1770114;81;21022;-56
2023/04/15 05:01:03;;;;;;;12.20;6.72;;;;;;;7.16;80.94;100501.05;1770294;81;21407;-57
2023/04/15 05:03:33;;;;;;;11.22;6.75;;;;;;;7.14;80.90;100480.75;1770101;81;21035;-56
2023/04/15 05:06:06;;;;;;;11.45;7.00;;;;;;;7.15;80.82;100486.58;1770255;80;21019;-58
2023/04/15 05:08:35;;;;;;;10.78;6.75;;;;;;;7.15;80.68;100488.41;1770214;80;21438;-58
2023/04/15 05:11:05;;;;;;;13.20;7.03;;;;;;;7.17;80.73;100489.13;1770144;80;21046;-55
2023/04/15 05:13:33;;;;;;;11.93;7.60;;;;;;;7.16;80.32;100494.23;1770214;81;21464;-57
2023/04/15 05:16:05;;;;;;;10.53;6.92;;;;;;;7.14;80.35;100499.83;1770371;80;21481;-58
2023/04/15 05:18:35;;;;;;;10.80;6.97;;;;;;;7.10;80.40;100498.98;1770213;81;21290;-57
2023/04/15 05:21:04;;;;;;;11.83;6.80;;;;;;;7.09;80.65;100494.55;1770210;81;21065;-57
2023/04/15 05:23:33;;;;;;;10.82;6.50;;;;;;;7.11;80.74;100501.53;1770306;80;21038;-58
2023/04/15 05:26:02;;;;;;;10.53;6.33;;;;;;;7.10;80.47;100506.64;1751494;81;20994;-57
2023/04/15 05:28:31;;;;;;;9.70;5.95;;;;;;;7.06;80.53;100503.92;1770751;80;21035;-59
2023/04/15 05:31:00;;;;;;;10.35;5.92;;;;;;;7.07;80.69;100496.09;1770742;81;21430;-58
2023/04/15 05:33:30;;;;;;;10.03;6.30;;;;;;;7.10;80.82;100503.92;1751551;81;21046;-56
2023/04/15 05:35:59;;;;;;;10.20;6.22;;;;;;;7.12;80.70;100514.13;1773522;80;21439;-57
2023/04/15 05:38:28;;;;;;;11.20;6.37;;;;;;;7.13;80.88;100511.75;1776293;79;21533;-56
2023/04/15 05:40:56;;;;;;;10.48;5.97;;;;;;;7.14;80.70;100515.32;1776238;81;21026;-58
2023/04/15 05:43:28;;;;;;;9.23;5.70;;;;;;;7.10;80.68;100514.81;1776477;81;21085;-57
2023/04/15 05:45:58;;;;;;;10.13;5.40;;;;;;;7.06;80.49;100528.95;1776317;79;21078;-58
2023/04/15 05:48:26;;;;;;;9.88;6.00;;;;;;;7.01;80.57;100526.75;1776281;79;21442;-57
2023/04/15 05:50:55;;;;;;;10.98;5.85;;;;;;;7.00;80.78;100526.41;1776518;80;21521;-56
2023/04/15 05:53:25;;;;;;;9.83;5.80;;;;;;;6.98;80.69;100520.28;1724920;82;21261;-57
2023/04/15 05:55:54;;;;;;;15.45;7.08;;;;;;;6.98;80.88;100523.00;1725333;83;21479;-57
2023/04/15 05:58:23;;;;;;;10.68;6.50;;;;;;;6.98;80.83;100525.22;1725151;83;21503;-56
2023/04/15 06:00:53;;;;;;;9.78;6.40;;;;;;;6.97;81.02;100525.39;1724990;83;21023;-57
2023/04/15 06:03:24;;;;;;;11.22;6.90;;;;;;;6.98;81.12;100526.58;1725131;83;21062;-57
2023/04/15 06:05:54;;;;;;;12.93;7.22;;;;;;;7.00;81.25;100520.96;1725116;83;21524;-57
2023/04/15 06:08:23;;;;;;;11.18;7.37;;;;;;;7.05;81.13;100528.62;1724956;83;21463;-58
2023/04/15 06:10:51;;;;;;;10.90;6.50;;;;;;;7.03;80.93;100520.62;1725246;83;21022;-57
2023/04/15 06:13:22;;;;;;;11.30;6.80;;;;;;;7.05;80.86;100521.81;1725133;83;21150;-57
2023/04/15 06:15:52;;;;;;;10.48;7.05;;;;;;;7.05;80.85;100527.25;1724911;83;21061;-57
2023/04/15 06:18:23;;;;;;;12.15;7.10;;;;;;;7.08;80.85;100529.13;1757498;81;21078;-57
2023/04/15 06:20:52;;;;;;;13.78;6.95;;;;;;;7.10;80.86;100528.44;1776331;79;21038;-56
2023/04/15 06:23:21;;;;;;;10.65;6.40;;;;;;;7.15;80.81;100521.99;1776187;81;21435;-57
2023/04/15 06:25:50;;;;;;;12.40;7.37;;;;;;;7.16;80.36;100525.05;1776339;81;21046;-58
2023/04/15 06:28:19;;;;;;;11.50;7.15;;;;;;;7.12;80.12;100534.56;1776145;79;21461;-60
2023/04/15 06:30:48;;;;;;;19.35;7.95;;;;;;;7.13;80.22;100527.25;1776088;80;21019;-57
2023/04/15 06:33:21;;;;;;;13.53;6.62;;;;;;;7.15;80.17;100534.73;1776049;81;21058;-57
2023/04/15 06:35:51;;;;;;;10.13;6.20;;;;;;;7.14;79.89;100542.06;1776226;81;21034;-57
2023/04/15 06:38:20;;;;;;;10.75;6.97;;;;;;;7.12;79.53;100545.98;1776288;79;21489;-59
2023/04/15 06:40:49;;;;;;;10.00;6.08;;;;;;;7.10;79.41;100541.21;1776492;80;21133;-57
2023/04/15 06:43:19;;;;;;;9.68;5.75;;;;;;;7.09;79.43;100537.64;1775982;79;21462;-57
2023/04/15 06:45:50;;;;;;;9.33;5.80;;;;;;;7.10;79.61;100543.42;1725097;83;21077;-57
2023/04/15 06:48:19;;;;;;;8.23;5.25;;;;;;;7.18;79.69;100543.96;1725073;83;21460;-56
2023/04/15 06:50:50;;;;;;;8.83;5.22;;;;;;;7.28;79.82;100548.72;1724882;83;21502;-57
2023/04/15 06:53:20;;;;;;;8.70;4.92;;;;;;;7.35;79.26;100543.42;1725085;83;21078;-58
2023/04/15 06:55:49;;;;;;;9.65;5.35;;;;;;;7.44;78.94;100551.92;1724984;83;21571;-56
2023/04/15 06:58:18;;;;;;;10.45;5.60;;;;;;;7.47;78.66;100547.48;1725148;83;21485;-58
2023/04/15 07:00:48;;;;;;;8.90;4.67;;;;;;;7.48;78.26;100538.28;1724662;83;20979;-57
2023/04/15 07:03:19;;;;;;;7.33;4.20;;;;;;;7.48;78.36;100547.30;1725100;83;21470;-57
2023/04/15 07:05:48;;;;;;;6.58;4.15;;;;;;;7.47;78.19;100549.70;1724955;83;21486;-57
2023/04/15 07:08:19;;;;;;;7.20;4.20;;;;;;;7.47;78.16;100557.02;1725133;83;21027;-58
2023/04/15 07:10:49;;;;;;;11.25;4.72;;;;;;;7.46;77.68;100549.88;1758030;79;21038;-59
2023/04/15 07:13:17;;;;;;;10.50;4.90;;;;;;;7.43;77.83;100557.03;1776222;80;21454;-58
2023/04/15 07:15:49;;;;;;;6.53;4.17;;;;;;;7.42;77.75;100559.42;1776186;80;21058;-57
2023/04/15 07:18:20;;;;;;;7.35;4.37;;;;;;;7.41;77.81;100556.36;1776255;80;21034;-58
2023/04/15 07:20:51;;;;;;;9.00;5.15;;;;;;;7.43;77.90;100557.03;1776349;81;22057;-58
2023/04/15 07:23:21;;;;;;;8.03;4.80;;;;;;;7.43;77.87;100551.06;1776477;81;20990;-57
2023/04/15 07:25:51;;;;;;;7.33;4.42;;;;;;;7.42;77.63;100557.55;1776487;79;21014;-58
2023/04/15 07:28:21;;;;;;;7.62;4.20;;;;;;;7.42;77.35;100551.24;1776224;79;21442;-57
2023/04/15 09:34:17;;;;;;;6.65;4.37;;;;;;;7.07;76.06;100596.05;1763623;76;25170;-76
2023/04/15 09:36:55;;;;;;;7.15;4.28;;;;;;;7.01;76.74;100592.13;1678192;85;21574;-79
2023/04/15 09:39:25;;;;;;;7.70;5.28;;;;;;;7.07;76.59;100595.53;1717262;83;21142;-79
2023/04/15 10:31:31;;;;;;;6.70;4.30;;;;;;;7.17;75.86;100615.32;1848004;77;25835;-79
2023/04/15 10:34:05;;;;;;;11.93;5.10;;;;;;;7.11;75.43;100613.24;1820899;79;21079;-82
2023/04/15 10:36:35;;;;;;;7.03;4.42;;;;;;;7.11;75.59;100613.24;1753909;81;21643;-79
2023/04/15 10:49:25;;;;;;;6.92;3.35;;;;;;;7.31;75.23;100617.36;1829631;77;26249;-79
2023/04/15 10:55:47;;;;;;;7.80;3.72;;;;;;;7.36;75.23;100618.20;1817517;77;24901;-85
2023/04/15 10:58:16;;;;;;;5.53;3.85;;;;;;;7.35;74.93;100621.11;1757461;81;21118;-77
2023/04/15 11:01:08;;;;;;;6.75;4.33;;;;;;;7.37;74.80;100625.88;1751636;77;21170;31
2023/04/15 11:03:42;;;;;;;9.13;4.10;;;;;;;7.39;74.97;100623.83;1690438;83;21127;-77
2023/04/15 11:09:32;;;;;;;7.65;4.55;;;;;;;7.40;74.29;100623.66;1689269;83;21188;-58
2023/04/15 11:12:09;;;;;;;6.10;3.75;;;;;;;7.39;74.70;100618.38;1647628;86;21174;-57
2023/04/15 11:14:42;;;;;;;6.85;4.53;;;;;;;7.40;74.80;100615.48;1642155;85;21167;-58
2023/04/15 11:17:18;;;;;;;7.35;4.50;;;;;;;7.40;74.50;100618.20;1700617;83;21143;-60
2023/04/15 11:19:50;;;;;;;7.45;4.40;;;;;;;7.40;74.47;100620.93;1649582;86;21212;-58
2023/04/15 11:22:22;;;;;;;8.08;4.10;;;;;;;7.37;74.36;100617.70;1648620;86;21171;-58
2023/04/15 11:25:10;;;;;;;9.08;3.92;;;;;;;7.38;74.52;100624.85;1663075;85;21151;-57
2023/04/15 11:27:55;;;;;;;7.28;3.52;;;;;;;7.40;74.75;100624.16;1696744;84;21566;-57
2023/04/15 11:30:29;;;;;;;5.45;3.75;;;;;;;7.43;74.57;100614.28;1647881;86;21160;-58
2023/04/15 11:33:02;;;;;;;8.20;3.90;;;;;;;7.46;74.58;100612.06;1649955;85;21163;-57
2023/04/15 11:35:36;;;;;;;10.50;4.55;;;;;;;7.47;74.41;100603.37;1692469;85;21120;-58
2023/04/15 11:38:08;;;;;;;11.22;4.25;;;;;;;7.44;74.09;100611.38;1692688;85;21171;-58
2023/04/15 11:40:38;;;;;;;8.88;3.83;;;;;;;7.43;73.80;100613.77;1649957;86;21145;-58
2023/04/15 11:43:28;;;;;;;9.80;4.20;;;;;;;7.40;73.72;100620.93;1692189;84;21179;-57
2023/04/15 11:45:59;;;;;;;9.95;4.45;;;;;;;7.38;73.60;100620.25;1664461;86;21147;-58
2023/04/15 11:48:33;;;;;;;6.50;4.13;;;;;;;7.37;73.69;100614.97;1666043;86;21187;-58
2023/04/15 11:51:06;;;;;;;7.47;3.90;;;;;;;7.37;73.91;100619.91;1662668;85;21195;-59
2023/04/15 11:53:48;;;;;;;10.32;4.00;;;;;;;7.36;73.81;100608.66;1666666;86;21250;-58
2023/04/15 11:56:23;;;;;;;7.50;3.72;;;;;;;7.36;73.84;100605.09;1667740;85;21191;-58
2023/04/15 11:59:01;;;;;;;8.10;3.52;;;;;;;7.38;73.51;100615.31;1667713;86;21539;-59
2023/04/15 12:01:41;;;;;;;12.45;3.85;;;;;;;7.33;73.70;100612.25;1667754;86;21239;-58
2023/04/15 12:04:21;;;;;;;11.00;4.10;;;;;;;7.34;73.93;100618.89;1701397;84;21143;-60
2023/04/15 12:06:55;;;;;;;7.22;3.60;;;;;;;7.33;74.25;100608.16;1683533;85;21111;-57
2023/04/15 12:09:25;;;;;;;6.42;3.67;;;;;;;7.31;73.93;100603.73;1691291;83;21552;-58
2023/04/15 12:11:57;;;;;;;6.80;3.58;;;;;;;7.30;74.19;100597.94;1717925;83;21180;-58
2023/04/15 12:14:31;;;;;;;6.47;3.67;;;;;;;7.31;74.43;100590.11;1717293;83;21129;-56
2023/04/15 12:17:03;;;;;;;6.87;4.28;;;;;;;7.34;74.62;100597.59;1728069;83;21174;-58
2023/04/15 12:19:36;;;;;;;7.97;3.87;;;;;;;7.35;74.66;100591.12;1700523;83;21620;-57
2023/04/15 12:22:09;;;;;;;7.05;3.80;;;;;;;7.37;74.81;100592.66;1700475;84;21216;-58
2023/04/15 12:24:39;;;;;;;8.80;3.92;;;;;;;7.38;74.75;100594.86;1700606;84;21559;-58
2023/04/15 12:27:10;;;;;;;6.15;3.60;;;;;;;7.35;74.58;100579.70;1736324;83;21143;-57
2023/04/15 12:29:44;;;;;;;8.10;4.35;;;;;;;7.33;74.74;100588.56;1700389;83;21125;-58
2023/04/15 12:32:19;;;;;;;6.85;4.17;;;;;;;7.31;74.77;100587.38;1736103;82;21264;-57
2023/04/15 12:34:52;;;;;;;7.03;4.12;;;;;;;7.28;74.92;100581.42;1700686;84;21517;-58
2023/04/15 12:37:25;;;;;;;9.08;4.20;;;;;;;7.29;75.24;100575.80;1736089;82;21191;-58
2023/04/15 12:39:54;;;;;;;7.80;4.80;;;;;;;7.33;75.32;100571.36;1735988;82;21187;-57
2023/04/15 12:42:24;;;;;;;7.85;4.12;;;;;;;7.34;75.33;100567.61;1700668;83;21176;-56
2023/04/15 12:44:55;;;;;;;8.18;4.25;;;;;;;7.35;75.46;100559.77;1736068;82;21167;-58
2023/04/15 12:47:24;;;;;;;7.28;4.42;;;;;;;7.36;76.02;100554.66;1700939;83;21125;-58
2023/04/15 12:50:04;;;;;;;10.75;4.75;;;;;;;7.34;76.43;100566.25;1701116;84;21193;-55
2023/04/15 12:52:40;;;;;;;7.30;4.78;;;;;;;7.29;76.71;100574.44;1736251;82;21555;-59
2023/04/15 12:55:30;;;;;;;9.70;5.90;;;;;;;7.27;76.99;100566.94;1736674;82;21155;-59
2023/04/15 12:57:58;;;;;;;9.73;5.50;;;;;;;7.27;77.13;100572.39;1700605;84;21184;-58
2023/04/15 13:00:27;;;;;;;9.40;5.03;;;;;;;7.27;77.13;100579.72;1700724;84;21144;-58
2023/04/15 13:02:56;;;;;;;7.65;4.28;;;;;;;7.27;77.25;100567.45;1736021;82;21143;-58
2023/04/15 13:05:27;;;;;;;8.38;4.58;;;;;;;7.25;76.90;100566.27;1700784;84;21165;-58
2023/04/15 13:07:56;;;;;;;9.00;4.30;;;;;;;7.26;76.97;100578.02;1701692;84;21674;-57
2023/04/15 13:10:28;;;;;;;5.97;3.92;;;;;;;7.26;76.83;100572.56;1734038;82;21101;-59
2023/04/15 13:12:56;;;;;;;10.18;4.03;;;;;;;7.24;76.52;100568.65;1734253;82;21168;-58
2023/04/15 13:15:30;;;;;;;5.65;3.75;;;;;;;7.26;76.72;100584.83;1734087;82;21149;-58
2023/04/15 13:18:06;;;;;;;4.60;3.47;;;;;;;7.25;76.35;100570.86;1735737;82;21128;-59
2023/04/15 13:20:35;;;;;;;7.58;3.72;;;;;;;7.24;76.33;100570.02;1736294;82;21108;-58
2023/04/15 13:23:06;;;;;;;4.72;3.45;;;;;;;7.25;76.28;100572.22;1735925;83;21555;-57
2023/04/15 13:25:55;;;;;;;6.47;4.40;;;;;;;7.27;76.35;100572.39;1734407;82;21200;-59
2023/04/15 13:28:27;;;;;;;8.88;4.65;;;;;;;7.27;76.24;100568.30;1733623;82;21214;-58
2023/04/15 13:30:56;;;;;;;12.15;6.17;;;;;;;7.27;75.94;100566.94;1734020;82;21148;-58
2023/04/15 13:33:25;;;;;;;7.65;4.83;;;;;;;7.29;76.20;100564.89;1713572;82;21129;-58
2023/04/15 13:36:00;;;;;;;7.65;4.97;;;;;;;7.30;75.85;100573.41;1734176;82;21145;-59
2023/04/15 13:38:29;;;;;;;10.88;4.53;;;;;;;7.33;75.84;100567.27;1734223;83;21133;-59
2023/04/15 13:40:58;;;;;;;8.33;4.55;;;;;;;7.32;75.83;100563.70;1733997;83;21125;-58
2023/04/15 13:43:27;;;;;;;8.83;4.40;;;;;;;7.32;75.79;100573.23;1733786;83;21125;-58
2023/04/15 13:46:00;;;;;;;8.15;4.78;;;;;;;7.34;75.85;100568.98;1734027;83;21306;-59
2023/04/15 13:48:33;;;;;;;8.83;4.85;;;;;;;7.33;75.98;100571.36;1733959;83;21576;-58
2023/04/15 13:51:02;;;;;;;8.58;4.60;;;;;;;7.35;76.09;100566.08;1734042;83;21187;-59
2023/04/15 13:53:33;;;;;;;8.93;4.83;;;;;;;7.37;75.94;100579.53;1733860;83;21105;-57
2023/04/15 13:56:05;;;;;;;7.12;4.35;;;;;;;7.37;75.90;100580.89;1733728;82;21219;-57
2023/04/15 13:58:34;;;;;;;5.72;3.95;;;;;;;7.36;76.00;100571.87;1734142;82;21616;-58
2023/04/15 14:01:02;;;;;;;7.92;3.90;;;;;;;7.37;76.21;100577.66;1733968;83;21133;-57
2023/04/15 14:03:38;;;;;;;5.67;3.60;;;;;;;7.39;76.03;100576.97;1734216;83;21176;-59
2023/04/15 14:06:08;;;;;;;5.92;3.98;;;;;;;7.39;76.14;100576.97;1734156;83;21169;-58
2023/04/15 14:08:56;;;;;;;8.63;4.70;;;;;;;7.39;75.97;100570.67;1732059;82;21191;-58
2023/04/15 14:11:25;;;;;;;7.03;3.95;;;;;;;7.39;75.87;100567.94;1746447;82;21180;-59
2023/04/15 14:13:56;;;;;;;8.50;3.90;;;;;;;7.40;75.98;100568.28;1746666;82;21633;-59
2023/04/15 14:16:29;;;;;;;8.70;4.17;;;;;;;7.41;75.93;100572.71;1742289;82;21208;-58
2023/04/15 14:19:01;;;;;;;6.75;4.35;;;;;;;7.42;76.04;100582.08;1745983;81;22037;-58
2023/04/15 14:21:39;;;;;;;7.20;4.70;;;;;;;7.41;75.85;100589.06;1746113;81;21642;-59
2023/04/15 14:24:10;;;;;;;9.28;5.22;;;;;;;7.37;75.89;100583.63;1746222;82;21156;-59
2023/04/15 14:26:44;;;;;;;10.50;5.80;;;;;;;7.30;76.03;100588.40;1746491;82;21617;-60
2023/04/15 14:29:19;;;;;;;11.38;5.80;;;;;;;7.27;76.36;100608.33;1739524;82;21171;-58
2023/04/15 14:31:49;;;;;;;7.90;4.83;;;;;;;7.30;76.74;100611.56;1745928;81;21542;-57
2023/04/15 14:34:23;;;;;;;6.28;3.80;;;;;;;7.29;76.72;100592.66;1742254;82;21191;-58
2023/04/15 14:36:56;;;;;;;7.03;3.65;;;;;;;7.28;76.80;100605.44;1746213;82;21191;-58
2023/04/15 14:39:26;;;;;;;5.67;3.40;;;;;;;7.26;76.83;100613.45;1746006;81;21741;-57
2023/04/15 14:41:55;;;;;;;6.90;3.90;;;;;;;7.23;77.16;100605.61;1745981;81;21783;-58
2023/04/15 14:44:31;;;;;;;7.92;3.70;;;;;;;7.23;77.37;100609.19;1746145;82;21153;-58
2023/04/15 14:46:59;;;;;;;5.12;3.60;;;;;;;7.24;77.65;100605.95;1745995;82;21129;-58
2023/04/15 14:49:29;;;;;;;5.47;3.80;;;;;;;7.25;77.94;100615.31;1745978;82;21151;-58
2023/04/15 14:52:20;;;;;;;8.83;3.70;;;;;;;7.25;78.05;100607.14;1743308;81;21295;-58
2023/04/15 14:54:59;;;;;;;5.40;3.85;;;;;;;7.24;78.22;100625.88;1730607;82;21558;-57
2023/04/15 14:57:28;;;;;;;8.83;4.22;;;;;;;7.24;78.31;100619.06;1720749;83;21122;-58
2023/04/15 14:59:58;;;;;;;7.12;4.22;;;;;;;7.24;78.49;100622.30;1720868;83;21114;-60